sensor_id;sensor_type;location;lat;lon;timestamp;pressure;altitude;pressure_sealevel;temperature;humidity
59531;BME280;45349;48.692;8.186;2023-09-19T00:00:06;150383.78;;;17.20;100.00
59531;BME280;45349;48.692;8.186;2023-09-19T00:02:38;150411.31;;;17.32;100.00
59531;BME280;45349;48.692;8.186;2023-09-19T00:05:05;150381.28;;;17.19;100.00
59531;BME280;45349;48.692;8.186;2023-09-19T00:07:33;150386.28;;;17.21;100.00
59531;BME280;45349;48.692;8.186;2023-09-19T00:10:02;150388.78;;;17.22;100.00
59531;BME280;45349;48.692;8.186;2023-09-19T00:12:30;150400.06;;;17.27;100.00
59531;BME280;45349;48.692;8.186;2023-09-19T00:14:56;150387.56;;;17.22;100.00
59531;BME280;45349;48.692;8.186;2023-09-19T00:17:25;150411.31;;;17.32;100.00
59531;BME280;45349;48.692;8.186;2023-09-19T00:19:52;150415.09;;;17.33;100.00
59531;BME280;45349;48.692;8.186;2023-09-19T00:22:19;150413.81;;;17.33;100.00
59531;BME280;45349;48.692;8.186;2023-09-19T00:24:45;150402.56;;;17.28;100.00
59531;BME280;45349;48.692;8.186;2023-09-19T00:27:12;150413.81;;;17.33;100.00
59531;BME280;45349;48.692;8.186;2023-09-19T00:29:39;150407.56;;;17.30;100.00
59531;BME280;45349;48.692;8.186;2023-09-19T00:32:07;150395.06;;;17.25;100.00
59531;BME280;45349;48.692;8.186;2023-09-19T00:34:35;150391.28;;;17.23;100.00
59531;BME280;45349;48.692;8.186;2023-09-19T00:37:02;150385.06;;;17.21;100.00
59531;BME280;45349;48.692;8.186;2023-09-19T00:39:29;150400.06;;;17.27;98.87
59531;BME280;45349;48.692;8.186;2023-09-19T00:41:56;150407.56;;;17.30;100.00
59531;BME280;45349;48.692;8.186;2023-09-19T00:44:23;150396.28;;;17.25;100.00
59531;BME280;45349;48.692;8.186;2023-09-19T00:46:50;150377.56;;;17.18;100.00
59531;BME280;45349;48.692;8.186;2023-09-19T00:49:16;150398.78;;;17.26;100.00
59531;BME280;45349;48.692;8.186;2023-09-19T00:51:47;150347.53;;;17.05;100.00
59531;BME280;45349;48.692;8.186;2023-09-19T00:54:14;150370.06;;;17.15;100.00
59531;BME280;45349;48.692;8.186;2023-09-19T00:56:44;150361.28;;;17.11;100.00
59531;BME280;45349;48.692;8.186;2023-09-19T00:59:11;150357.53;;;17.09;100.00
59531;BME280;45349;48.692;8.186;2023-09-19T01:01:38;150358.78;;;17.10;100.00
59531;BME280;45349;48.692;8.186;2023-09-19T01:04:06;150352.53;;;17.07;100.00
59531;BME280;45349;48.692;8.186;2023-09-19T01:06:33;150396.28;;;17.25;99.48
59531;BME280;45349;48.692;8.186;2023-09-19T01:09:01;150391.28;;;17.23;99.41
59531;BME280;45349;48.692;8.186;2023-09-19T01:11:33;150378.78;;;17.18;100.00
59531;BME280;45349;48.692;8.186;2023-09-19T01:14:14;150366.28;;;17.13;100.00
59531;BME280;45349;48.692;8.186;2023-09-19T01:16:48;150335.03;;;17.00;100.00
59531;BME280;45349;48.692;8.186;2023-09-19T01:19:35;150322.47;;;16.95;100.00
59531;BME280;45349;48.692;8.186;2023-09-19T01:22:18;150326.25;;;16.96;100.00
59531;BME280;45349;48.692;8.186;2023-09-19T01:25:14;150333.75;;;17.00;100.00
59531;BME280;45349;48.692;8.186;2023-09-19T01:28:07;150324.97;;;16.96;100.00
59531;BME280;45349;48.692;8.186;2023-09-19T01:30:43;150327.53;;;16.97;100.00
59531;BME280;45349;48.692;8.186;2023-09-19T01:33:10;150376.28;;;17.17;100.00
59531;BME280;45349;48.692;8.186;2023-09-19T01:35:37;150357.53;;;17.09;100.00
59531;BME280;45349;48.692;8.186;2023-09-19T01:38:04;150356.28;;;17.09;100.00
59531;BME280;45349;48.692;8.186;2023-09-19T01:40:34;150372.56;;;17.16;99.80
59531;BME280;45349;48.692;8.186;2023-09-19T01:43:11;150368.78;;;17.14;100.00
59531;BME280;45349;48.692;8.186;2023-09-19T01:45:48;150413.81;;;17.33;99.06
59531;BME280;45349;48.692;8.186;2023-09-19T01:48:22;150413.81;;;17.33;99.61
59531;BME280;45349;48.692;8.186;2023-09-19T01:51:00;150416.31;;;17.34;98.12
59531;BME280;45349;48.692;8.186;2023-09-19T01:53:30;150398.78;;;17.26;99.96
59531;BME280;45349;48.692;8.186;2023-09-19T01:56:00;150391.28;;;17.23;99.92
59531;BME280;45349;48.692;8.186;2023-09-19T01:58:33;150416.31;;;17.34;99.02
59531;BME280;45349;48.692;8.186;2023-09-19T02:01:03;150395.06;;;17.25;99.32
59531;BME280;45349;48.692;8.186;2023-09-19T02:03:31;150387.56;;;17.22;100.00
59531;BME280;45349;48.692;8.186;2023-09-19T02:06:00;150385.06;;;17.21;99.14
59531;BME280;45349;48.692;8.186;2023-09-19T02:08:28;150397.56;;;17.26;99.07
59531;BME280;45349;48.692;8.186;2023-09-19T02:10:58;150406.31;;;17.30;99.21
59531;BME280;45349;48.692;8.186;2023-09-19T02:13:26;150407.56;;;17.30;100.00
59531;BME280;45349;48.692;8.186;2023-09-19T02:16:01;150411.31;;;17.32;99.22
59531;BME280;45349;48.692;8.186;2023-09-19T02:18:29;150437.59;;;17.43;99.38
59531;BME280;45349;48.692;8.186;2023-09-19T02:20:58;150445.09;;;17.46;97.78
59531;BME280;45349;48.692;8.186;2023-09-19T02:23:25;150418.81;;;17.35;99.11
59531;BME280;45349;48.692;8.186;2023-09-19T02:26:17;150440.09;;;17.44;99.00
59531;BME280;45349;48.692;8.186;2023-09-19T02:28:44;150416.31;;;17.34;99.66
59531;BME280;45349;48.692;8.186;2023-09-19T02:31:12;150418.81;;;17.35;98.96
59531;BME280;45349;48.692;8.186;2023-09-19T02:33:39;150433.81;;;17.41;97.25
59531;BME280;45349;48.692;8.186;2023-09-19T02:36:05;150442.59;;;17.45;98.63
59531;BME280;45349;48.692;8.186;2023-09-19T02:38:33;150437.59;;;17.43;99.35
59531;BME280;45349;48.692;8.186;2023-09-19T02:41:00;150417.56;;;17.34;99.98
59531;BME280;45349;48.692;8.186;2023-09-19T02:43:52;150458.84;;;17.51;99.89
59531;BME280;45349;48.692;8.186;2023-09-19T02:46:20;150428.81;;;17.39;99.32
59531;BME280;45349;48.692;8.186;2023-09-19T02:48:47;150435.09;;;17.41;100.00
59531;BME280;45349;48.692;8.186;2023-09-19T02:51:14;150435.09;;;17.41;99.94
59531;BME280;45349;48.692;8.186;2023-09-19T02:53:40;150416.31;;;17.34;100.00
59531;BME280;45349;48.692;8.186;2023-09-19T02:56:08;150432.59;;;17.40;100.00
59531;BME280;45349;48.692;8.186;2023-09-19T02:58:37;150421.31;;;17.36;100.00
59531;BME280;45349;48.692;8.186;2023-09-19T03:01:08;150418.81;;;17.35;100.00
59531;BME280;45349;48.692;8.186;2023-09-19T03:03:38;150425.09;;;17.37;100.00
59531;BME280;45349;48.692;8.186;2023-09-19T03:06:06;150411.31;;;17.32;100.00
59531;BME280;45349;48.692;8.186;2023-09-19T03:08:34;150410.06;;;17.31;100.00
59531;BME280;45349;48.692;8.186;2023-09-19T03:11:03;150403.78;;;17.29;100.00
59531;BME280;45349;48.692;8.186;2023-09-19T03:13:31;150393.78;;;17.24;100.00
59531;BME280;45349;48.692;8.186;2023-09-19T03:15:59;150367.56;;;17.14;100.00
59531;BME280;45349;48.692;8.186;2023-09-19T03:18:27;150376.28;;;17.17;100.00
59531;BME280;45349;48.692;8.186;2023-09-19T03:21:00;150370.06;;;17.15;100.00
59531;BME280;45349;48.692;8.186;2023-09-19T03:23:28;150353.78;;;17.08;100.00
59531;BME280;45349;48.692;8.186;2023-09-19T03:25:58;150351.25;;;17.07;100.00
59531;BME280;45349;48.692;8.186;2023-09-19T03:28:26;150347.53;;;17.05;100.00
59531;BME280;45349;48.692;8.186;2023-09-19T03:30:59;150341.25;;;17.03;100.00
59531;BME280;45349;48.692;8.186;2023-09-19T03:33:27;150342.53;;;17.03;100.00
59531;BME280;45349;48.692;8.186;2023-09-19T03:36:01;150326.25;;;16.96;100.00
59531;BME280;45349;48.692;8.186;2023-09-19T03:38:30;150308.75;;;16.89;100.00
59531;BME280;45349;48.692;8.186;2023-09-19T03:40:59;150299.97;;;16.86;100.00
59531;BME280;45349;48.692;8.186;2023-09-19T03:43:25;150271.22;;;16.74;100.00
59531;BME280;45349;48.692;8.186;2023-09-19T03:46:01;150263.72;;;16.71;100.00
59531;BME280;45349;48.692;8.186;2023-09-19T03:48:30;150226.22;;;16.55;100.00
59531;BME280;45349;48.692;8.186;2023-09-19T03:51:00;150211.22;;;16.49;100.00
59531;BME280;45349;48.692;8.186;2023-09-19T03:53:27;150212.44;;;16.49;100.00
59531;BME280;45349;48.692;8.186;2023-09-19T03:55:59;150226.22;;;16.55;100.00
59531;BME280;45349;48.692;8.186;2023-09-19T03:58:27;150211.22;;;16.49;100.00
59531;BME280;45349;48.692;8.186;2023-09-19T04:00:59;150223.72;;;16.54;100.00
59531;BME280;45349;48.692;8.186;2023-09-19T04:03:27;150196.22;;;16.43;100.00
59531;BME280;45349;48.692;8.186;2023-09-19T04:06:01;150199.94;;;16.44;100.00
59531;BME280;45349;48.692;8.186;2023-09-19T04:08:28;150212.44;;;16.49;100.00
59531;BME280;45349;48.692;8.186;2023-09-19T04:10:58;150187.50;;;16.39;100.00
59531;BME280;45349;48.692;8.186;2023-09-19T04:13:26;150195.00;;;16.42;100.00
59531;BME280;45349;48.692;8.186;2023-09-19T04:15:58;150177.50;;;16.35;100.00
59531;BME280;45349;48.692;8.186;2023-09-19T04:18:25;150178.72;;;16.35;100.00
59531;BME280;45349;48.692;8.186;2023-09-19T04:21:18;150181.22;;;16.36;100.00
59531;BME280;45349;48.692;8.186;2023-09-19T04:23:45;150166.22;;;16.30;100.00
59531;BME280;45349;48.692;8.186;2023-09-19T04:26:11;150155.00;;;16.26;100.00
59531;BME280;45349;48.692;8.186;2023-09-19T04:28:38;150161.22;;;16.28;100.00
59531;BME280;45349;48.692;8.186;2023-09-19T04:31:06;150180.00;;;16.36;100.00
59531;BME280;45349;48.692;8.186;2023-09-19T04:33:34;150093.72;;;16.00;100.00
59531;BME280;45349;48.692;8.186;2023-09-19T04:36:01;150054.94;;;15.84;100.00
59531;BME280;45349;48.692;8.186;2023-09-19T04:38:30;149950.00;;;15.41;100.00
59531;BME280;45349;48.692;8.186;2023-09-19T04:40:59;149933.78;;;15.34;100.00
59531;BME280;45349;48.692;8.186;2023-09-19T04:43:30;149931.28;;;15.33;100.00
59531;BME280;45349;48.692;8.186;2023-09-19T04:45:58;149905.06;;;15.22;100.00
59531;BME280;45349;48.692;8.186;2023-09-19T04:48:25;149921.28;;;15.29;100.00
59531;BME280;45349;48.692;8.186;2023-09-19T04:50:58;149921.28;;;15.29;100.00
59531;BME280;45349;48.692;8.186;2023-09-19T04:53:25;149932.53;;;15.33;100.00
59531;BME280;45349;48.692;8.186;2023-09-19T04:56:00;149933.78;;;15.34;100.00
59531;BME280;45349;48.692;8.186;2023-09-19T04:58:29;149938.78;;;15.36;100.00
59531;BME280;45349;48.692;8.186;2023-09-19T05:00:59;149950.00;;;15.41;100.00
59531;BME280;45349;48.692;8.186;2023-09-19T05:03:28;149942.50;;;15.38;100.00
59531;BME280;45349;48.692;8.186;2023-09-19T05:05:58;149938.78;;;15.36;100.00
59531;BME280;45349;48.692;8.186;2023-09-19T05:08:26;149931.28;;;15.33;100.00
59531;BME280;45349;48.692;8.186;2023-09-19T05:11:02;149927.53;;;15.31;100.00
59531;BME280;45349;48.692;8.186;2023-09-19T05:13:29;149946.25;;;15.39;100.00
59531;BME280;45349;48.692;8.186;2023-09-19T05:16:00;149947.50;;;15.40;100.00
59531;BME280;45349;48.692;8.186;2023-09-19T05:18:27;149951.25;;;15.41;100.00
59531;BME280;45349;48.692;8.186;2023-09-19T05:21:01;149933.78;;;15.34;100.00
59531;BME280;45349;48.692;8.186;2023-09-19T05:23:28;149943.75;;;15.38;100.00
59531;BME280;45349;48.692;8.186;2023-09-19T05:25:59;149938.78;;;15.36;100.00
59531;BME280;45349;48.692;8.186;2023-09-19T05:28:27;149943.75;;;15.38;100.00
59531;BME280;45349;48.692;8.186;2023-09-19T05:31:00;149943.75;;;15.38;100.00
59531;BME280;45349;48.692;8.186;2023-09-19T05:33:26;149956.25;;;15.43;100.00
59531;BME280;45349;48.692;8.186;2023-09-19T05:35:59;149966.25;;;15.47;100.00
59531;BME280;45349;48.692;8.186;2023-09-19T05:38:25;149982.47;;;15.54;100.00
59531;BME280;45349;48.692;8.186;2023-09-19T05:40:59;149998.75;;;15.61;100.00
59531;BME280;45349;48.692;8.186;2023-09-19T05:43:28;150036.22;;;15.76;100.00
59531;BME280;45349;48.692;8.186;2023-09-19T05:45:59;150039.94;;;15.78;100.00
59531;BME280;45349;48.692;8.186;2023-09-19T05:48:26;150042.44;;;15.79;100.00
59531;BME280;45349;48.692;8.186;2023-09-19T05:50:59;150051.22;;;15.83;100.00
59531;BME280;45349;48.692;8.186;2023-09-19T05:53:26;150076.22;;;15.93;100.00
59531;BME280;45349;48.692;8.186;2023-09-19T05:55:58;150067.50;;;15.89;100.00
59531;BME280;45349;48.692;8.186;2023-09-19T05:58:26;150065.00;;;15.88;100.00
59531;BME280;45349;48.692;8.186;2023-09-19T06:01:00;150083.72;;;15.96;100.00
59531;BME280;45349;48.692;8.186;2023-09-19T06:03:27;150092.50;;;16.00;100.00
59531;BME280;45349;48.692;8.186;2023-09-19T06:05:59;150098.72;;;16.02;100.00
59531;BME280;45349;48.692;8.186;2023-09-19T06:08:25;150115.00;;;16.09;100.00
59531;BME280;45349;48.692;8.186;2023-09-19T06:10:58;150121.22;;;16.12;100.00
59531;BME280;45349;48.692;8.186;2023-09-19T06:13:27;150115.00;;;16.09;100.00
59531;BME280;45349;48.692;8.186;2023-09-19T06:16:00;150143.72;;;16.21;100.00
59531;BME280;45349;48.692;8.186;2023-09-19T06:18:29;150142.50;;;16.20;100.00
59531;BME280;45349;48.692;8.186;2023-09-19T06:20:59;150145.00;;;16.21;100.00
59531;BME280;45349;48.692;8.186;2023-09-19T06:23:26;150146.22;;;16.22;100.00
59531;BME280;45349;48.692;8.186;2023-09-19T06:25:58;150148.72;;;16.23;100.00
59531;BME280;45349;48.692;8.186;2023-09-19T06:28:25;150142.50;;;16.20;100.00
59531;BME280;45349;48.692;8.186;2023-09-19T06:31:02;150143.72;;;16.21;100.00
59531;BME280;45349;48.692;8.186;2023-09-19T06:33:28;150136.22;;;16.18;100.00
59531;BME280;45349;48.692;8.186;2023-09-19T06:35:59;150123.72;;;16.13;100.00
59531;BME280;45349;48.692;8.186;2023-09-19T06:38:25;150098.72;;;16.02;100.00
59531;BME280;45349;48.692;8.186;2023-09-19T06:41:17;150122.50;;;16.12;100.00
59531;BME280;45349;48.692;8.186;2023-09-19T06:43:44;150123.72;;;16.13;100.00
59531;BME280;45349;48.692;8.186;2023-09-19T06:46:12;150107.50;;;16.06;100.00
59531;BME280;45349;48.692;8.186;2023-09-19T06:48:39;150115.00;;;16.09;100.00
59531;BME280;45349;48.692;8.186;2023-09-19T06:51:06;150123.72;;;16.13;100.00
59531;BME280;45349;48.692;8.186;2023-09-19T06:53:34;150130.00;;;16.15;100.00
59531;BME280;45349;48.692;8.186;2023-09-19T06:56:01;150141.22;;;16.20;100.00
59531;BME280;45349;48.692;8.186;2023-09-19T06:58:27;150163.72;;;16.29;100.00
59531;BME280;45349;48.692;8.186;2023-09-19T07:00:59;150170.00;;;16.32;100.00
59531;BME280;45349;48.692;8.186;2023-09-19T07:03:27;150192.50;;;16.41;100.00
59531;BME280;45349;48.692;8.186;2023-09-19T07:05:59;150188.72;;;16.40;100.00
59531;BME280;45349;48.692;8.186;2023-09-19T07:08:25;150213.72;;;16.50;100.00
59531;BME280;45349;48.692;8.186;2023-09-19T07:10:59;150219.94;;;16.52;100.00
59531;BME280;45349;48.692;8.186;2023-09-19T07:13:26;150217.44;;;16.51;100.00
59531;BME280;45349;48.692;8.186;2023-09-19T07:15:59;150231.22;;;16.57;100.00
59531;BME280;45349;48.692;8.186;2023-09-19T07:18:27;150243.72;;;16.62;100.00
59531;BME280;45349;48.692;8.186;2023-09-19T07:20:59;150238.72;;;16.60;100.00
59531;BME280;45349;48.692;8.186;2023-09-19T07:23:30;150237.44;;;16.60;100.00
59531;BME280;45349;48.692;8.186;2023-09-19T07:26:00;150268.75;;;16.73;100.00
59531;BME280;45349;48.692;8.186;2023-09-19T07:28:27;150198.72;;;16.44;100.00
59531;BME280;45349;48.692;8.186;2023-09-19T07:31:01;150269.97;;;16.73;100.00
59531;BME280;45349;48.692;8.186;2023-09-19T07:33:29;150251.22;;;16.65;100.00
59531;BME280;45349;48.692;8.186;2023-09-19T07:35:59;150252.47;;;16.66;100.00
59531;BME280;45349;48.692;8.186;2023-09-19T07:38:26;150288.75;;;16.81;100.00
59531;BME280;45349;48.692;8.186;2023-09-19T07:41:17;150316.25;;;16.92;100.00
59531;BME280;45349;48.692;8.186;2023-09-19T07:43:44;150323.75;;;16.95;100.00
59531;BME280;45349;48.692;8.186;2023-09-19T07:46:10;150322.47;;;16.95;100.00
59531;BME280;45349;48.692;8.186;2023-09-19T07:48:38;150332.53;;;16.99;100.00
59531;BME280;45349;48.692;8.186;2023-09-19T07:51:07;150366.28;;;17.13;99.42
59531;BME280;45349;48.692;8.186;2023-09-19T07:53:35;150326.25;;;16.96;98.80
59531;BME280;45349;48.692;8.186;2023-09-19T07:56:03;150366.28;;;17.13;98.75
59531;BME280;45349;48.692;8.186;2023-09-19T07:58:30;150385.06;;;17.21;97.43
59531;BME280;45349;48.692;8.186;2023-09-19T08:01:03;150383.78;;;17.20;97.50
59531;BME280;45349;48.692;8.186;2023-09-19T08:03:29;150361.28;;;17.11;97.16
59531;BME280;45349;48.692;8.186;2023-09-19T08:06:00;150378.78;;;17.18;94.38
59531;BME280;45349;48.692;8.186;2023-09-19T08:08:27;150408.81;;;17.31;97.10
59531;BME280;45349;48.692;8.186;2023-09-19T08:10:59;150435.09;;;17.41;95.22
59531;BME280;45349;48.692;8.186;2023-09-19T08:13:26;150462.56;;;17.53;94.12
59531;BME280;45349;48.692;8.186;2023-09-19T08:15:59;150471.34;;;17.56;88.51
59531;BME280;45349;48.692;8.186;2023-09-19T08:18:25;150468.84;;;17.55;93.75
59531;BME280;45349;48.692;8.186;2023-09-19T08:21:00;150472.56;;;17.57;95.44
59531;BME280;45349;48.692;8.186;2023-09-19T08:23:27;150532.63;;;17.82;95.20
59531;BME280;45349;48.692;8.186;2023-09-19T08:25:59;150558.94;;;17.93;93.55
59531;BME280;45349;48.692;8.186;2023-09-19T08:28:28;150610.25;;;18.14;90.62
59531;BME280;45349;48.692;8.186;2023-09-19T08:31:01;150682.84;;;18.44;87.15
59531;BME280;45349;48.692;8.186;2023-09-19T08:33:29;150662.81;;;18.36;87.97
59531;BME280;45349;48.692;8.186;2023-09-19T08:36:00;150620.25;;;18.18;87.62
59531;BME280;45349;48.692;8.186;2023-09-19T08:38:27;150630.28;;;18.22;89.87
59531;BME280;45349;48.692;8.186;2023-09-19T08:40:59;150734.13;;;18.65;87.03
59531;BME280;45349;48.692;8.186;2023-09-19T08:43:27;150626.50;;;18.21;88.92
59531;BME280;45349;48.692;8.186;2023-09-19T08:46:08;150707.88;;;18.54;87.67
59531;BME280;45349;48.692;8.186;2023-09-19T08:48:39;150666.56;;;18.37;90.20
59531;BME280;45349;48.692;8.186;2023-09-19T08:51:07;150686.56;;;18.46;89.60
59531;BME280;45349;48.692;8.186;2023-09-19T08:53:42;150710.34;;;18.55;86.53
59531;BME280;45349;48.692;8.186;2023-09-19T08:56:12;150676.56;;;18.41;85.69
59531;BME280;45349;48.692;8.186;2023-09-19T08:58:44;150694.09;;;18.49;85.37
59531;BME280;45349;48.692;8.186;2023-09-19T09:01:14;150649.03;;;18.30;85.43
59531;BME280;45349;48.692;8.186;2023-09-19T09:03:42;150652.81;;;18.32;83.82
59531;BME280;45349;48.692;8.186;2023-09-19T09:06:13;150646.53;;;18.29;84.83
59531;BME280;45349;48.692;8.186;2023-09-19T09:08:41;150671.56;;;18.39;84.29
59531;BME280;45349;48.692;8.186;2023-09-19T09:11:08;150711.59;;;18.56;82.23
59531;BME280;45349;48.692;8.186;2023-09-19T09:13:35;150705.38;;;18.53;83.94
59531;BME280;45349;48.692;8.186;2023-09-19T09:16:02;150735.38;;;18.66;81.00
59531;BME280;45349;48.692;8.186;2023-09-19T09:18:29;150747.88;;;18.71;80.09
59531;BME280;45349;48.692;8.186;2023-09-19T09:20:58;150769.19;;;18.80;78.70
59531;BME280;45349;48.692;8.186;2023-09-19T09:23:27;150735.38;;;18.66;78.93
59531;BME280;45349;48.692;8.186;2023-09-19T09:25:59;150739.16;;;18.67;76.71
59531;BME280;45349;48.692;8.186;2023-09-19T09:28:29;150737.88;;;18.67;77.62
59531;BME280;45349;48.692;8.186;2023-09-19T09:30:59;150755.41;;;18.74;78.46
59531;BME280;45349;48.692;8.186;2023-09-19T09:33:28;150834.34;;;19.07;79.24
59531;BME280;45349;48.692;8.186;2023-09-19T09:36:00;150781.72;;;18.85;78.58
59531;BME280;45349;48.692;8.186;2023-09-19T09:38:32;150845.59;;;19.11;75.79
59531;BME280;45349;48.692;8.186;2023-09-19T09:41:09;150943.28;;;19.52;78.64
59531;BME280;45349;48.692;8.186;2023-09-19T09:43:41;150992.09;;;19.72;70.51
59531;BME280;45349;48.692;8.186;2023-09-19T09:46:13;150953.28;;;19.56;69.00
59531;BME280;45349;48.692;8.186;2023-09-19T09:49:00;150831.84;;;19.06;71.67
59531;BME280;45349;48.692;8.186;2023-09-19T09:51:51;150926.97;;;19.45;73.61
59531;BME280;45349;48.692;8.186;2023-09-19T09:54:27;150894.41;;;19.31;71.63
59531;BME280;45349;48.692;8.186;2023-09-19T09:57:01;150900.69;;;19.34;70.66
59531;BME280;45349;48.692;8.186;2023-09-19T09:59:52;150814.31;;;18.98;70.22
59531;BME280;45349;48.692;8.186;2023-09-19T10:02:25;150824.31;;;19.02;70.50
59531;BME280;45349;48.692;8.186;2023-09-19T10:04:55;150864.34;;;19.19;71.48
59531;BME280;45349;48.692;8.186;2023-09-19T10:07:40;150880.66;;;19.26;68.83
59531;BME280;45349;48.692;8.186;2023-09-19T10:10:15;150972.06;;;19.64;69.18
59531;BME280;45349;48.692;8.186;2023-09-19T10:12:48;150958.28;;;19.58;66.01
59531;BME280;45349;48.692;8.186;2023-09-19T10:15:17;150925.72;;;19.44;67.38
59531;BME280;45349;48.692;8.186;2023-09-19T10:17:46;150974.56;;;19.65;64.84
59531;BME280;45349;48.692;8.186;2023-09-19T10:20:14;151019.66;;;19.83;66.44
59531;BME280;45349;48.692;8.186;2023-09-19T10:22:50;150896.91;;;19.32;66.87
59531;BME280;45349;48.692;8.186;2023-09-19T10:25:26;150982.06;;;19.68;67.54
59531;BME280;45349;48.692;8.186;2023-09-19T10:27:54;150901.91;;;19.35;69.54
59531;BME280;45349;48.692;8.186;2023-09-19T10:30:23;150938.25;;;19.50;67.55
59531;BME280;45349;48.692;8.186;2023-09-19T10:32:57;150909.44;;;19.38;67.37
59531;BME280;45349;48.692;8.186;2023-09-19T10:35:26;150906.94;;;19.37;68.58
59531;BME280;45349;48.692;8.186;2023-09-19T10:37:54;150947.00;;;19.53;69.01
59531;BME280;45349;48.692;8.186;2023-09-19T10:40:26;151003.34;;;19.76;67.70
59531;BME280;45349;48.692;8.186;2023-09-19T10:43:00;150934.47;;;19.48;69.12
59531;BME280;45349;48.692;8.186;2023-09-19T10:45:28;150970.78;;;19.63;68.19
59531;BME280;45349;48.692;8.186;2023-09-19T10:47:57;150957.03;;;19.57;68.09
59531;BME280;45349;48.692;8.186;2023-09-19T10:50:24;150924.47;;;19.44;67.82
59531;BME280;45349;48.692;8.186;2023-09-19T10:52:53;150913.22;;;19.39;67.58
59531;BME280;45349;48.692;8.186;2023-09-19T10:55:27;150895.69;;;19.32;68.94
59531;BME280;45349;48.692;8.186;2023-09-19T10:57:55;150873.13;;;19.23;70.52
59531;BME280;45349;48.692;8.186;2023-09-19T11:00:23;150921.94;;;19.43;69.45
59531;BME280;45349;48.692;8.186;2023-09-19T11:03:17;150904.41;;;19.36;66.06
59531;BME280;45349;48.692;8.186;2023-09-19T11:06:01;150909.44;;;19.38;65.05
59531;BME280;45349;48.692;8.186;2023-09-19T11:08:54;150906.94;;;19.37;68.82
59531;BME280;45349;48.692;8.186;2023-09-19T11:11:47;150934.47;;;19.48;66.90
59531;BME280;45349;48.692;8.186;2023-09-19T11:14:38;150939.47;;;19.50;64.11
59531;BME280;45349;48.692;8.186;2023-09-19T11:17:33;150876.88;;;19.24;64.31
59531;BME280;45349;48.692;8.186;2023-09-19T11:20:22;150931.97;;;19.47;64.87
59531;BME280;45349;48.692;8.186;2023-09-19T11:23:20;150989.59;;;19.71;63.38
59531;BME280;45349;48.692;8.186;2023-09-19T11:26:40;151007.13;;;19.78;60.35
59531;BME280;45349;48.692;8.186;2023-09-19T11:29:25;150994.59;;;19.73;62.72
59531;BME280;45349;48.692;8.186;2023-09-19T11:31:52;151018.38;;;19.83;62.29
59531;BME280;45349;48.692;8.186;2023-09-19T11:34:45;151058.50;;;19.99;59.63
59531;BME280;45349;48.692;8.186;2023-09-19T11:43:37;151057.28;;;19.99;61.78
59531;BME280;45349;48.692;8.186;2023-09-19T11:46:08;151074.81;;;20.06;59.96
59531;BME280;45349;48.692;8.186;2023-09-19T11:48:35;151134.91;;;20.31;61.56
59531;BME280;45349;48.692;8.186;2023-09-19T11:51:11;151122.38;;;20.26;60.34
59531;BME280;45349;48.692;8.186;2023-09-19T11:53:42;151144.94;;;20.35;60.22
59531;BME280;45349;48.692;8.186;2023-09-19T11:56:10;151223.84;;;20.68;60.15
59531;BME280;45349;48.692;8.186;2023-09-19T11:58:37;151275.31;;;20.89;59.76
59531;BME280;45349;48.692;8.186;2023-09-19T12:01:05;151250.25;;;20.78;59.98
59531;BME280;45349;48.692;8.186;2023-09-19T12:03:42;151337.97;;;21.15;58.65
59531;BME280;45349;48.692;8.186;2023-09-19T12:06:13;151414.44;;;21.46;56.47
59531;BME280;45349;48.692;8.186;2023-09-19T12:08:41;151420.66;;;21.49;56.73
59531;BME280;45349;48.692;8.186;2023-09-19T12:11:12;151433.22;;;21.54;56.76
59531;BME280;45349;48.692;8.186;2023-09-19T12:13:42;151393.09;;;21.37;55.11
59531;BME280;45349;48.692;8.186;2023-09-19T12:16:13;151376.81;;;21.31;57.30
59531;BME280;45349;48.692;8.186;2023-09-19T12:18:44;151500.97;;;21.82;54.77
59531;BME280;45349;48.692;8.186;2023-09-19T12:21:25;151509.72;;;21.86;54.44
59531;BME280;45349;48.692;8.186;2023-09-19T12:23:58;151538.59;;;21.97;53.55
59531;BME280;45349;48.692;8.186;2023-09-19T12:26:26;151557.38;;;22.05;53.98
59531;BME280;45349;48.692;8.186;2023-09-19T12:28:54;151674.06;;;22.53;53.68
59531;BME280;45349;48.692;8.186;2023-09-19T12:31:21;151657.78;;;22.47;54.08
59531;BME280;45349;48.692;8.186;2023-09-19T12:33:54;151638.88;;;22.39;52.99
59531;BME280;45349;48.692;8.186;2023-09-19T12:36:21;151494.69;;;21.79;53.22
59531;BME280;45349;48.692;8.186;2023-09-19T12:38:54;151621.31;;;22.32;52.52
59531;BME280;45349;48.692;8.186;2023-09-19T12:41:21;151598.78;;;22.22;53.93
59531;BME280;45349;48.692;8.186;2023-09-19T12:43:48;151630.13;;;22.35;51.88
59531;BME280;45349;48.692;8.186;2023-09-19T12:46:20;151561.16;;;22.07;51.28
59531;BME280;45349;48.692;8.186;2023-09-19T12:49:16;151543.59;;;22.00;51.74
59531;BME280;45349;48.692;8.186;2023-09-19T12:51:44;151495.97;;;21.80;53.50
59531;BME280;45349;48.692;8.186;2023-09-19T12:54:11;151472.16;;;21.70;53.68
59531;BME280;45349;48.692;8.186;2023-09-19T12:56:41;151534.81;;;21.96;52.90
59531;BME280;45349;48.692;8.186;2023-09-19T12:59:11;151443.25;;;21.58;52.90
59531;BME280;45349;48.692;8.186;2023-09-19T13:01:39;151375.53;;;21.30;51.52
59531;BME280;45349;48.692;8.186;2023-09-19T13:04:12;151310.41;;;21.03;53.92
59531;BME280;45349;48.692;8.186;2023-09-19T13:06:42;151327.94;;;21.11;54.20
59531;BME280;45349;48.692;8.186;2023-09-19T13:09:10;151405.63;;;21.43;53.88
59531;BME280;45349;48.692;8.186;2023-09-19T13:11:37;151413.16;;;21.46;53.31